createdAt,value
2022-08-03T00:00:12.553Z,48.59
2022-08-03T00:01:11.408Z,48.52
2022-08-03T00:02:16.645Z,48.33
2022-08-03T00:03:11.772Z,48.02
2022-08-03T00:04:11.699Z,48.58
2022-08-03T00:05:12.181Z,48.36
2022-08-03T00:06:10.967Z,49.20
2022-08-03T00:07:11.923Z,49.38
2022-08-03T00:08:12.646Z,49.36
2022-08-03T00:09:12.008Z,49.36
2022-08-03T00:10:11.135Z,49.18
2022-08-03T00:11:11.987Z,49.67
2022-08-03T00:12:10.879Z,49.78
2022-08-03T00:13:11.298Z,49.74
2022-08-03T00:14:11.121Z,49.61
2022-08-03T00:15:18.570Z,49.41
2022-08-03T00:16:12.028Z,49.52
2022-08-03T00:17:11.017Z,49.45
2022-08-03T00:18:11.187Z,50.11
2022-08-03T00:19:11.182Z,49.97
2022-08-03T00:20:11.364Z,50.19
2022-08-03T00:21:11.326Z,50.15
2022-08-03T00:22:11.443Z,50.22
2022-08-03T00:23:11.568Z,50.02
2022-08-03T00:24:11.735Z,50.25
2022-08-03T00:25:12.029Z,50.52
2022-08-03T00:26:10.953Z,51.20
2022-08-03T00:27:11.916Z,51.31
2022-08-03T00:28:12.354Z,51.58
2022-08-03T00:29:11.331Z,51.41
2022-08-03T00:30:11.663Z,51.43
2022-08-03T00:31:40.222Z,51.59
2022-08-03T00:32:15.088Z,51.63
2022-08-03T00:33:14.409Z,51.63
2022-08-03T00:34:12.501Z,51.97
2022-08-03T00:35:26.619Z,52.13
2022-08-03T00:36:12.002Z,52.39
2022-08-03T00:37:10.845Z,52.44
2022-08-03T00:38:11.581Z,52.63
2022-08-03T00:39:11.546Z,52.58
2022-08-03T00:40:11.732Z,52.43
2022-08-03T00:41:19.210Z,52.77
2022-08-03T00:42:11.178Z,52.77
2022-08-03T00:43:11.102Z,52.93
2022-08-03T00:44:10.588Z,52.54
2022-08-03T00:45:11.879Z,52.34
2022-08-03T00:46:11.552Z,52.29
2022-08-03T00:47:11.845Z,52.40
2022-08-03T00:48:36.537Z,52.20
2022-08-03T00:49:11.429Z,52.20
2022-08-03T00:50:11.903Z,52.13
2022-08-03T00:51:11.900Z,51.79
2022-08-03T00:52:13.598Z,52.06
2022-08-03T00:53:11.501Z,51.86
2022-08-03T00:54:11.288Z,51.83
2022-08-03T00:55:11.690Z,49.47
2022-08-03T00:56:11.571Z,49.38
2022-08-03T00:57:11.488Z,48.93
2022-08-03T00:58:11.727Z,49.04
2022-08-03T00:59:11.584Z,48.77
2022-08-03T01:00:12.324Z,49.18
2022-08-03T01:01:12.129Z,49.29
2022-08-03T01:02:10.909Z,49.29
2022-08-03T01:03:11.714Z,49.30
2022-08-03T01:04:11.758Z,49.06
2022-08-03T01:05:11.863Z,49.22
2022-08-03T01:06:11.603Z,49.36
2022-08-03T01:07:15.010Z,49.29
2022-08-03T01:08:10.643Z,49.63
2022-08-03T01:09:25.632Z,49.24
2022-08-03T01:10:11.666Z,49.24
2022-08-03T01:11:25.948Z,49.22
2022-08-03T01:12:11.764Z,49.31
2022-08-03T01:14:18.665Z,48.66
2022-08-03T01:14:23.185Z,48.93
2022-08-03T01:15:11.864Z,48.93
2022-08-03T01:16:11.341Z,48.68
2022-08-03T01:17:11.322Z,48.97
2022-08-03T01:18:11.917Z,48.82
2022-08-03T01:19:11.749Z,48.65
2022-08-03T01:20:11.821Z,48.68
2022-08-03T01:21:14.649Z,48.94
2022-08-03T01:22:11.283Z,48.90
2022-08-03T01:23:11.792Z,48.88
2022-08-03T01:24:11.865Z,48.15
2022-08-03T01:25:11.840Z,48.59
2022-08-03T01:26:11.727Z,48.41
2022-08-03T01:27:11.708Z,48.58
2022-08-03T01:28:11.740Z,48.59
2022-08-03T01:29:11.431Z,48.66
2022-08-03T01:30:11.898Z,48.63
2022-08-03T01:31:11.957Z,48.83
2022-08-03T01:33:09.668Z,48.84
2022-08-03T01:33:14.884Z,48.84
2022-08-03T01:34:18.299Z,48.90
2022-08-03T01:35:11.230Z,49.07
2022-08-03T01:36:11.457Z,49.14
2022-08-03T01:37:11.541Z,49.38
2022-08-03T01:38:11.353Z,49.52
2022-08-03T01:39:11.827Z,49.58
2022-08-03T01:40:11.885Z,49.68
2022-08-03T01:41:11.588Z,49.68
2022-08-03T01:42:11.606Z,49.65
2022-08-03T01:43:11.978Z,49.35
2022-08-03T01:44:34.317Z,49.59
2022-08-03T01:45:11.321Z,49.59
2022-08-03T01:46:11.215Z,49.84
2022-08-03T01:47:11.223Z,49.84
2022-08-03T01:48:11.363Z,49.93
2022-08-03T01:49:13.595Z,49.40
2022-08-03T01:50:11.970Z,49.79
2022-08-03T01:51:11.888Z,49.81
2022-08-03T01:52:11.668Z,50.52
2022-08-03T01:53:11.585Z,51.00
2022-08-03T01:54:11.817Z,50.95
2022-08-03T01:55:11.928Z,51.15
2022-08-03T01:56:12.055Z,51.19
2022-08-03T01:57:10.830Z,50.77
2022-08-03T01:58:11.734Z,50.20
2022-08-03T01:59:11.925Z,50.99
2022-08-03T02:00:13.260Z,50.68
2022-08-03T02:01:11.812Z,50.68
2022-08-03T02:02:37.680Z,50.20
2022-08-03T02:03:11.982Z,50.20
2022-08-03T02:04:11.763Z,51.33
2022-08-03T02:05:15.119Z,51.49
2022-08-03T02:07:08.883Z,51.20
2022-08-03T02:07:13.921Z,51.20
2022-08-03T02:08:11.426Z,49.90
2022-08-03T02:09:11.015Z,51.15
2022-08-03T02:10:11.517Z,44.38
2022-08-03T02:11:11.326Z,49.5
2022-08-03T02:12:11.129Z,51.31
2022-08-03T02:13:10.906Z,50.90
2022-08-03T02:14:11.499Z,50.49
2022-08-03T02:15:13.791Z,49.50
2022-08-03T02:16:11.854Z,48.90
2022-08-03T02:17:11.434Z,49.08
2022-08-03T02:18:10.977Z,49.38
2022-08-03T02:19:11.450Z,49.74
2022-08-03T02:20:11.590Z,50.20
2022-08-03T02:21:55.709Z,49.86
2022-08-03T02:22:11.630Z,50.06
2022-08-03T02:23:11.668Z,50.22
2022-08-03T02:24:12.240Z,49.74
2022-08-03T02:25:11.325Z,49.52
2022-08-03T02:26:11.120Z,48.77
2022-08-03T02:27:11.639Z,48.50
2022-08-03T02:28:11.408Z,48.65
2022-08-03T02:29:14.240Z,48.99
2022-08-03T02:30:12.201Z,48.59
2022-08-03T02:31:11.717Z,48.20
2022-08-03T02:32:11.448Z,47.38
2022-08-03T02:33:12.285Z,46.68
2022-08-03T02:34:11.391Z,45.09
2022-08-03T02:35:11.537Z,45.70
2022-08-03T02:36:12.102Z,45.84
2022-08-03T02:37:11.077Z,46.09
2022-08-03T02:38:11.923Z,46.18
2022-08-03T02:39:11.847Z,45.91
2022-08-03T02:40:12.700Z,45.90
2022-08-03T02:41:11.588Z,45.81
2022-08-03T02:42:12.123Z,45.88
2022-08-03T02:43:11.846Z,45.84
2022-08-03T02:44:11.894Z,45.47
2022-08-03T02:45:14.523Z,45.33
2022-08-03T02:46:11.369Z,44.70
2022-08-03T02:47:11.613Z,43.58
2022-08-03T02:48:11.420Z,43.25
2022-08-03T02:49:55.009Z,42.93
2022-08-03T02:50:11.159Z,42.93
2022-08-03T02:51:11.283Z,43.11
2022-08-03T02:52:17.049Z,43.27
2022-08-03T02:53:11.441Z,43.02
2022-08-03T02:54:11.473Z,43.13
2022-08-03T02:55:11.686Z,43.18
2022-08-03T02:56:12.189Z,43.25
2022-08-03T02:57:11.570Z,42.74
2022-08-03T02:58:11.744Z,42.77
2022-08-03T02:59:11.716Z,42.97
2022-08-03T03:00:13.012Z,42.96
2022-08-03T03:01:11.809Z,42.72
2022-08-03T03:02:11.795Z,42.70
2022-08-03T03:03:13.733Z,43.22
2022-08-03T03:04:12.660Z,43.06
2022-08-03T03:06:01.016Z,43.06
2022-08-03T03:06:11.766Z,43.06
2022-08-03T03:07:12.075Z,43.23
2022-08-03T03:08:26.886Z,42.77
2022-08-03T03:09:11.498Z,42.77
2022-08-03T03:10:12.079Z,43.02
2022-08-03T03:11:10.919Z,43.29
2022-08-03T03:12:11.667Z,43.54
2022-08-03T03:13:11.413Z,43.52
2022-08-03T03:14:12.458Z,43.75
2022-08-03T03:15:11.495Z,43.61
2022-08-03T03:16:12.128Z,43.56
2022-08-03T03:17:11.311Z,43.77
2022-08-03T03:18:11.253Z,43.69
2022-08-03T03:19:11.103Z,43.63
2022-08-03T03:20:11.765Z,43.29
2022-08-03T03:21:11.628Z,43.36
2022-08-03T03:22:11.618Z,43.49
2022-08-03T03:23:11.591Z,43.47
2022-08-03T03:24:11.849Z,43.47
2022-08-03T03:25:11.782Z,43.56
2022-08-03T03:26:11.993Z,43.84
2022-08-03T03:27:11.179Z,44.06
2022-08-03T03:28:11.575Z,43.75
2022-08-03T03:29:11.883Z,44.32
2022-08-03T03:30:12.377Z,44.25
2022-08-03T03:31:11.846Z,44.11
2022-08-03T03:32:13.275Z,44.16
2022-08-03T03:33:11.641Z,44.34
2022-08-03T03:34:11.845Z,44.29
2022-08-03T03:35:12.064Z,44.13
2022-08-03T03:36:11.031Z,43.83
2022-08-03T03:37:10.946Z,43.88
2022-08-03T03:38:11.485Z,44.13
2022-08-03T03:39:19.528Z,44.67
2022-08-03T03:40:11.875Z,44.67
2022-08-03T03:41:11.497Z,44.75
2022-08-03T03:42:30.817Z,44.65
2022-08-03T03:43:11.864Z,44.65
2022-08-03T03:44:11.623Z,44.97
2022-08-03T03:45:11.809Z,44.99
2022-08-03T03:46:11.475Z,44.90
2022-08-03T03:47:11.443Z,44.86
2022-08-03T03:48:11.210Z,45.04
2022-08-03T03:49:11.413Z,45.35
2022-08-03T03:50:11.575Z,45.52
2022-08-03T03:51:11.523Z,45.43
2022-08-03T03:52:11.378Z,45.29
2022-08-03T03:53:13.915Z,45.70
2022-08-03T03:54:12.068Z,46.20
2022-08-03T03:55:11.571Z,47.40
2022-08-03T03:56:11.898Z,45.18
2022-08-03T03:57:16.783Z,45.11
2022-08-03T03:58:12.175Z,45.04
2022-08-03T03:59:11.355Z,43.09
2022-08-03T04:00:12.050Z,39.61
2022-08-03T04:01:11.498Z,39.31
2022-08-03T04:02:11.727Z,39.43
2022-08-03T04:03:11.902Z,39.33
2022-08-03T04:04:12.226Z,39.36
2022-08-03T04:05:11.755Z,39.47
2022-08-03T04:06:11.953Z,39.47
2022-08-03T04:07:12.033Z,39.61
2022-08-03T04:08:11.584Z,39.54
2022-08-03T04:09:11.915Z,39.40
2022-08-03T04:11:12.377Z,39.33
2022-08-03T04:12:11.324Z,39.59
2022-08-03T04:13:11.706Z,38.70
2022-08-03T04:14:11.877Z,38.41
2022-08-03T04:15:13.257Z,38.36
2022-08-03T04:16:11.246Z,38.33
2022-08-03T04:17:11.537Z,30
2022-08-03T04:18:11.593Z,38.84
2022-08-03T04:19:11.749Z,38.91
2022-08-03T04:20:12.176Z,39.08
2022-08-03T04:21:11.162Z,38.91
2022-08-03T04:22:11.441Z,38.63
2022-08-03T04:23:19.198Z,38.84
2022-08-03T04:24:11.592Z,38.93
2022-08-03T04:25:12.366Z,38.72
2022-08-03T04:26:11.510Z,38.58
2022-08-03T04:27:11.853Z,39.08
2022-08-03T04:28:35.228Z,39.20
2022-08-03T04:29:11.465Z,39.20
2022-08-03T04:30:11.878Z,39.11
2022-08-03T04:31:11.752Z,39.29
2022-08-03T04:32:11.886Z,38.72
2022-08-03T04:33:12.234Z,39.40
2022-08-03T04:34:12.420Z,39.22
2022-08-03T04:35:11.878Z,39.22
2022-08-03T04:36:11.169Z,39.11
2022-08-03T04:37:11.560Z,39.34
2022-08-03T04:38:11.646Z,39.31
2022-08-03T04:39:11.050Z,39.48
2022-08-03T04:40:11.468Z,39.36
2022-08-03T04:41:11.322Z,39.49
2022-08-03T04:43:11.246Z,39.58
2022-08-03T04:44:11.533Z,39.43
2022-08-03T04:45:12.138Z,39.50
2022-08-03T04:46:11.348Z,39.68
2022-08-03T04:47:11.294Z,39.59
2022-08-03T04:48:11.297Z,39.77
2022-08-03T04:49:11.485Z,39.86
2022-08-03T04:50:21.006Z,39.86
2022-08-03T04:51:12.075Z,40.06
2022-08-03T04:52:11.231Z,40.29
2022-08-03T04:53:11.311Z,40.18
2022-08-03T04:54:11.417Z,40.31
2022-08-03T04:55:11.575Z,40.43
2022-08-03T04:56:11.372Z,40.22
2022-08-03T04:57:22.760Z,40.35
2022-08-03T04:58:11.692Z,40.20
2022-08-03T04:59:11.909Z,40.39
2022-08-03T05:00:13.300Z,40.13
2022-08-03T05:01:11.644Z,40.34
2022-08-03T05:02:11.932Z,40.06
2022-08-03T05:03:28.035Z,40.63
2022-08-03T05:04:11.247Z,40.63
2022-08-03T05:05:11.707Z,40.56
2022-08-03T05:06:16.230Z,39.15
2022-08-03T05:07:16.404Z,38.93
2022-08-03T05:08:14.977Z,38.94
2022-08-03T05:09:11.237Z,38.79
2022-08-03T05:11:11.680Z,38.79
2022-08-03T05:12:11.498Z,38.83
2022-08-03T05:13:11.358Z,38.79
2022-08-03T05:14:11.353Z,39.11
2022-08-03T05:15:11.727Z,39.00
2022-08-03T05:16:11.312Z,38.40
2022-08-03T05:17:11.718Z,39.22
2022-08-03T05:18:17.857Z,39.04
2022-08-03T05:19:11.597Z,38.90
2022-08-03T05:20:12.118Z,39.25
2022-08-03T05:21:11.323Z,39.06
2022-08-03T05:22:11.584Z,39.13
2022-08-03T05:23:12.128Z,39.40
2022-08-03T05:24:11.123Z,39.56
2022-08-03T05:25:17.376Z,39.54
2022-08-03T05:26:12.009Z,39.59
2022-08-03T05:27:10.968Z,39.54
2022-08-03T05:28:11.969Z,39.50
2022-08-03T05:29:12.422Z,39.64
2022-08-03T05:30:36.978Z,39.59
2022-08-03T05:31:16.598Z,39.59
2022-08-03T05:32:12.351Z,39.68
2022-08-03T05:33:11.904Z,39.70
2022-08-03T05:34:12.082Z,39.79
2022-08-03T05:36:10.143Z,39.90
2022-08-03T05:36:14.940Z,39.90
2022-08-03T05:37:12.935Z,39.83
2022-08-03T05:38:13.256Z,40.16
2022-08-03T05:39:11.492Z,40.09
2022-08-03T05:40:12.070Z,40.34
2022-08-03T05:41:36.486Z,40.41
2022-08-03T05:42:12.034Z,40.41
2022-08-03T05:43:11.462Z,40.34
2022-08-03T05:44:11.393Z,40.43
2022-08-03T05:45:12.282Z,40.31
2022-08-03T05:46:17.213Z,40.61
2022-08-03T05:47:11.035Z,40.66
2022-08-03T05:48:10.901Z,40.63
2022-08-03T05:49:11.724Z,41.00
2022-08-03T05:50:12.297Z,41.38
2022-08-03T05:51:12.234Z,41.29
2022-08-03T05:53:12.330Z,41.04
2022-08-03T05:54:11.467Z,42.75
2022-08-03T05:55:11.582Z,42.70
2022-08-03T05:56:18.417Z,30
2022-08-03T05:57:11.466Z,42.06
2022-08-03T05:58:11.321Z,42.34
2022-08-03T05:59:54.569Z,42.31
2022-08-03T06:00:13.382Z,42.31
2022-08-03T06:01:12.139Z,42.18
2022-08-03T06:02:11.443Z,42.02
2022-08-03T06:03:11.858Z,42.00
2022-08-03T06:04:12.404Z,42.15
2022-08-03T06:05:11.988Z,41.83
2022-08-03T06:06:11.325Z,41.86
2022-08-03T06:07:12.079Z,42.13
2022-08-03T06:08:10.892Z,42.18
2022-08-03T06:09:11.572Z,42.20
2022-08-03T06:10:41.976Z,43.88
2022-08-03T06:11:12.295Z,43.88
2022-08-03T06:12:18.112Z,42.66
2022-08-03T06:13:11.576Z,42.04
2022-08-03T06:14:11.533Z,41.77
2022-08-03T06:15:15.349Z,42.14
2022-08-03T06:16:11.982Z,42.23
2022-08-03T06:17:11.730Z,42.04
2022-08-03T06:18:12.131Z,42.04
2022-08-03T06:19:11.709Z,42.00
2022-08-03T06:20:12.643Z,41.81
2022-08-03T06:21:19.713Z,41.88
2022-08-03T06:22:11.830Z,41.88
2022-08-03T06:23:19.571Z,41.65
2022-08-03T06:24:13.100Z,41.65
2022-08-03T06:25:16.782Z,41.72
2022-08-03T06:26:12.114Z,41.97
2022-08-03T06:27:12.167Z,41.58
2022-08-03T06:28:53.118Z,41.49
2022-08-03T06:29:13.758Z,41.49
2022-08-03T06:30:17.029Z,41.71
2022-08-03T06:31:12.401Z,41.77
2022-08-03T06:32:11.677Z,41.96
2022-08-03T06:33:12.273Z,41.76
2022-08-03T06:34:38.185Z,40.90
2022-08-03T06:35:11.625Z,40.90
2022-08-03T06:36:15.985Z,41.79
2022-08-03T06:37:11.567Z,41.86
2022-08-03T06:38:12.284Z,41.72
2022-08-03T06:39:11.893Z,41.41
2022-08-03T06:40:13.881Z,40.79
2022-08-03T06:41:11.075Z,41.13
2022-08-03T06:42:13.530Z,41.04
2022-08-03T06:43:16.631Z,39.40
2022-08-03T06:44:12.313Z,38.70
2022-08-03T06:45:12.525Z,39.43
2022-08-03T06:46:11.968Z,40.00
2022-08-03T06:47:12.429Z,40.31
2022-08-03T06:48:11.647Z,40.31
2022-08-03T06:49:13.088Z,40.52
2022-08-03T06:51:11.698Z,40.06
2022-08-03T06:52:12.043Z,40.47
2022-08-03T06:53:19.265Z,40.59
2022-08-03T06:54:11.778Z,40.94
2022-08-03T06:55:12.519Z,40.77
2022-08-03T06:56:11.599Z,41.14
2022-08-03T06:57:12.039Z,41.13
2022-08-03T06:58:11.403Z,41.25
2022-08-03T07:00:06.129Z,41.45
2022-08-03T07:00:16.379Z,41.49
2022-08-03T07:01:12.100Z,41.47
2022-08-03T07:02:11.595Z,41.34
2022-08-03T07:03:12.127Z,41.29
2022-08-03T07:04:11.439Z,41.08
2022-08-03T07:05:12.804Z,41.27
2022-08-03T07:06:12.422Z,41.57
2022-08-03T07:07:12.058Z,41.47
2022-08-03T07:08:11.716Z,41.79
2022-08-03T07:09:13.054Z,41.75
2022-08-03T07:10:11.391Z,41.20
2022-08-03T07:11:11.514Z,40.95
2022-08-03T07:12:11.463Z,41.49
2022-08-03T07:13:11.856Z,40.41
2022-08-03T07:14:11.762Z,40.36
2022-08-03T07:15:55.374Z,40.59
2022-08-03T07:16:11.286Z,40.59
2022-08-03T07:17:16.094Z,40.52
2022-08-03T07:18:11.296Z,30
2022-08-03T07:19:11.337Z,40.79
2022-08-03T07:20:11.599Z,40.81
2022-08-03T07:21:12.132Z,40.84
2022-08-03T07:22:11.473Z,40.72
2022-08-03T07:23:11.973Z,41.11
2022-08-03T07:24:11.394Z,41.47
2022-08-03T07:25:12.777Z,41.40
2022-08-03T07:26:11.967Z,41.36
2022-08-03T07:27:11.858Z,41.55
2022-08-03T07:28:12.338Z,41.58
2022-08-03T07:29:19.132Z,41.43
2022-08-03T07:30:11.717Z,42.04
2022-08-03T07:31:11.776Z,42.66
2022-08-03T07:32:11.837Z,42.84
2022-08-03T07:33:12.062Z,43.02
2022-08-03T07:34:11.589Z,42.90
2022-08-03T07:35:28.158Z,43.11
2022-08-03T07:36:11.556Z,43.11
2022-08-03T07:37:11.700Z,42.72
2022-08-03T07:38:11.999Z,42.75
2022-08-03T07:39:21.577Z,43.28
2022-08-03T07:40:12.062Z,43.28
2022-08-03T07:41:11.796Z,42.79
2022-08-03T07:42:11.745Z,43.22
2022-08-03T07:43:11.877Z,43.37
2022-08-03T07:44:11.889Z,43.32
2022-08-03T07:45:20.256Z,43.25
2022-08-03T07:46:17.712Z,43.25
2022-08-03T07:47:35.211Z,43.25
2022-08-03T07:48:18.821Z,43.25
2022-08-03T07:49:18.013Z,43.18
2022-08-03T07:50:18.058Z,43.13
2022-08-03T07:51:17.596Z,43.16
2022-08-03T07:52:11.749Z,42.86
2022-08-03T07:53:11.709Z,42.90
2022-08-03T07:54:12.067Z,43.03
2022-08-03T07:55:11.716Z,43.13
2022-08-03T07:56:15.358Z,43.01
2022-08-03T07:57:11.764Z,43.06
2022-08-03T07:58:11.975Z,42.97
2022-08-03T07:59:12.014Z,42.93
2022-08-03T08:00:12.164Z,43.17
2022-08-03T08:01:14.988Z,43.15
2022-08-03T08:02:11.586Z,43.26
2022-08-03T08:03:12.157Z,43.15
2022-08-03T08:04:11.522Z,43.11
2022-08-03T08:05:12.431Z,43.04
